Terminal Aerodrome Forecast
Issued by NWS

Home | Current Version | Previous Version | Text Only | Print | Product List | Glossary On
Versions: 1 2 3 4 5 6 7 8 9 10 11 12 13 14 15 16 17 18 19
000
FTUS43 KEAX 251000 AAA
TAFSTJ
TAF AMD
KSTJ 251039Z 2511/2606 32012G20KT P6SM BKN025
     FM251200 33020G30KT P6SM VCSH OVC015
     FM251900 35015G25KT P6SM BKN030
     FM260000 35008KT P6SM SCT035=

USA.gov is the U.S. government's official web portal to all federal, state and local government web resources and services.